createdAt,value
2018-04-18T00:01:51.257Z,4.47
2018-04-18T00:04:20.816Z,4.80
2018-04-18T00:06:50.309Z,4.90
2018-04-18T00:09:19.833Z,4.50
2018-04-18T00:11:49.332Z,4.70
2018-04-18T00:14:18.913Z,4.80
2018-04-18T00:16:48.427Z,4.90
2018-04-18T00:19:17.909Z,4.40
2018-04-18T00:21:47.545Z,5.43
2018-04-18T00:24:17.076Z,4.63
2018-04-18T00:26:46.580Z,4.70
2018-04-18T00:29:16.281Z,5.30
2018-04-18T00:31:45.625Z,5.43
2018-04-18T00:34:15.106Z,4.80
2018-04-18T00:36:44.596Z,4.90
2018-04-18T00:39:14.113Z,4.67
2018-04-18T00:41:43.603Z,5.30
2018-04-18T00:44:12.868Z,5.60
2018-04-18T00:46:42.340Z,6.23
2018-04-18T00:49:12.037Z,5.57
2018-04-18T00:51:41.512Z,6.10
2018-04-18T00:54:11.093Z,6.13
2018-04-18T00:56:40.589Z,5.73
2018-04-18T00:59:10.083Z,6.73
2018-04-18T01:01:39.585Z,6.57
2018-04-18T01:04:09.056Z,6.63
2018-04-18T01:06:38.663Z,5.77
2018-04-18T01:09:08.135Z,5.60
2018-04-18T01:11:37.388Z,6.23
2018-04-18T01:14:06.856Z,6.40
2018-04-18T01:16:36.415Z,7.50
2018-04-18T01:19:05.953Z,6.17
2018-04-18T01:21:35.452Z,6.10
2018-04-18T01:24:04.948Z,6.63
2018-04-18T01:26:34.429Z,6.47
2018-04-18T01:29:03.925Z,7.37
2018-04-18T01:31:33.400Z,6.90
2018-04-18T01:34:02.945Z,6.77
2018-04-18T01:36:32.187Z,6.67
2018-04-18T01:39:01.691Z,6.50
2018-04-18T01:41:31.168Z,6.70
2018-04-18T01:44:00.804Z,6.57
2018-04-18T01:46:30.288Z,6.70
2018-04-18T01:49:05.181Z,6.40
2018-04-18T01:51:34.668Z,6.30
2018-04-18T01:54:04.165Z,6.47
2018-04-18T01:56:33.645Z,5.90
2018-04-18T01:59:03.135Z,6.17
2018-04-18T02:01:32.726Z,6.10
2018-04-18T02:04:02.257Z,6.93
2018-04-18T02:06:31.737Z,6.10
2018-04-18T02:09:01.037Z,6.70
2018-04-18T02:11:30.562Z,7.17
2018-04-18T02:14:00.037Z,6.30
2018-04-18T02:16:29.525Z,6.10
2018-04-18T02:18:59.020Z,6.50
2018-04-18T02:21:28.518Z,7.10
2018-04-18T02:23:58.098Z,6.70
2018-04-18T02:26:27.605Z,6.70
2018-04-18T02:28:56.860Z,7.10
2018-04-18T02:31:26.101Z,5.67
2018-04-18T02:33:55.598Z,7.17
2018-04-18T02:36:24.840Z,6.77
2018-04-18T02:38:54.200Z,6.63
2018-04-18T02:41:23.523Z,8.50
2018-04-18T02:43:53.101Z,6.43
2018-04-18T02:46:22.572Z,7.70
2018-04-18T02:48:51.819Z,7.17
2018-04-18T02:51:21.407Z,7.13
2018-04-18T02:53:50.749Z,7.83
2018-04-18T02:56:20.243Z,7.17
2018-04-18T02:58:49.777Z,6.97
2018-04-18T03:01:19.339Z,6.70
2018-04-18T03:03:48.616Z,7.27
2018-04-18T03:06:18.101Z,6.80
2018-04-18T03:08:47.580Z,6.97
2018-04-18T03:11:16.825Z,7.30
2018-04-18T03:13:48.246Z,6.80
2018-04-18T03:16:17.909Z,6.70
2018-04-18T03:18:47.389Z,6.83
2018-04-18T03:21:16.968Z,6.50
2018-04-18T03:23:46.560Z,6.50
2018-04-18T03:26:15.881Z,7.63
2018-04-18T03:28:45.483Z,6.53
2018-04-18T03:31:14.977Z,7.27
2018-04-18T03:33:44.476Z,6.10
2018-04-18T03:36:13.992Z,7.33
2018-04-18T03:38:43.602Z,6.90
2018-04-18T03:41:13.157Z,6.77
2018-04-18T03:43:42.669Z,6.40
2018-04-18T03:46:12.224Z,6.50
2018-04-18T03:48:41.725Z,6.57
2018-04-18T03:51:11.315Z,7.60
2018-04-18T03:53:40.805Z,7.70
2018-04-18T03:56:10.474Z,6.77
2018-04-18T03:58:39.969Z,7.17
2018-04-18T04:01:09.453Z,6.63
2018-04-18T04:03:38.990Z,7.50
2018-04-18T04:06:08.472Z,7.47
2018-04-18T04:08:37.984Z,7.60
2018-04-18T04:11:07.481Z,7.73
2018-04-18T04:13:36.773Z,8.27
2018-04-18T04:16:11.720Z,9.20
2018-04-18T04:18:46.640Z,7.97
2018-04-18T04:21:21.816Z,8.30
2018-04-18T04:23:56.980Z,8.60
2018-04-18T04:26:26.532Z,7.40
2018-04-18T04:28:56.013Z,8.37
2018-04-18T04:31:25.509Z,8.93
2018-04-18T04:33:54.880Z,9.00
2018-04-18T04:36:24.367Z,9.50
2018-04-18T04:38:53.956Z,9.30
2018-04-18T04:41:23.455Z,8.80
2018-04-18T04:43:53.021Z,10.20
2018-04-18T04:46:22.283Z,10.17
2018-04-18T04:48:52.084Z,9.33
2018-04-18T04:51:21.348Z,10.90
2018-04-18T04:53:50.896Z,10.30
2018-04-18T04:56:20.378Z,10.33
2018-04-18T04:58:49.628Z,10.73
2018-04-18T05:01:19.134Z,10.67
2018-04-18T05:03:48.753Z,11.27
2018-04-18T05:06:17.688Z,10.30
2018-04-18T05:08:47.414Z,11.13
2018-04-18T05:11:16.944Z,11.10
2018-04-18T05:13:46.252Z,10.43
2018-04-18T05:16:15.968Z,10.47
2018-04-18T05:18:45.458Z,10.67
2018-04-18T05:21:15.004Z,10.17
2018-04-18T05:23:44.484Z,10.83
2018-04-18T05:26:13.770Z,11.80
2018-04-18T05:28:43.368Z,12.80
2018-04-18T05:31:12.633Z,12.63
2018-04-18T05:33:42.116Z,13.13
2018-04-18T05:36:11.787Z,12.50
2018-04-18T05:38:41.284Z,12.07
2018-04-18T05:41:10.777Z,12.73
2018-04-18T05:43:40.262Z,12.63
2018-04-18T05:46:09.759Z,13.67
2018-04-18T05:48:39.402Z,12.60
2018-04-18T05:51:08.799Z,13.10
2018-04-18T05:53:38.061Z,12.23
2018-04-18T05:56:06.578Z,12.97
2018-04-18T05:58:36.048Z,13.53
2018-04-18T06:01:04.599Z,14.43
2018-04-18T06:03:33.085Z,13.00
2018-04-18T06:06:01.718Z,14.50
2018-04-18T06:08:30.364Z,14.70
2018-04-18T06:10:58.838Z,15.60
2018-04-18T06:13:28.024Z,16.53
2018-04-18T06:15:56.625Z,19.33
2018-04-18T06:18:25.125Z,18.20
2018-04-18T06:20:53.700Z,18.00
2018-04-18T06:23:22.495Z,19.60
2018-04-18T06:25:50.981Z,19.70
2018-04-18T06:28:19.467Z,19.90
2018-04-18T06:30:47.933Z,19.90
2018-04-18T06:33:16.468Z,19.77
2018-04-18T06:35:44.945Z,18.20
2018-04-18T06:38:13.417Z,20.10
2018-04-18T06:40:42.438Z,18.60
2018-04-18T06:43:11.683Z,18.77
2018-04-18T06:45:40.214Z,19.40
2018-04-18T06:48:08.697Z,19.13
2018-04-18T06:50:37.193Z,19.17
2018-04-18T06:53:06.535Z,18.70
2018-04-18T06:55:35.013Z,18.97
2018-04-18T06:58:03.521Z,18.87
2018-04-18T07:00:32.016Z,18.77
2018-04-18T07:03:02.057Z,16.80
2018-04-18T07:05:31.316Z,19.50
2018-04-18T07:07:59.822Z,19.20
2018-04-18T07:10:29.150Z,18.70
2018-04-18T07:12:58.416Z,18.77
2018-04-18T07:15:26.900Z,17.67
2018-04-18T07:17:55.392Z,16.63
2018-04-18T07:20:23.869Z,17.13
2018-04-18T07:22:52.485Z,17.50
2018-04-18T07:25:21.741Z,16.70
2018-04-18T07:27:50.224Z,18.03
2018-04-18T07:30:18.510Z,15.83
2018-04-18T07:32:47.172Z,18.07
2018-04-18T07:35:15.665Z,16.53
2018-04-18T07:37:44.156Z,16.83
2018-04-18T07:40:12.801Z,16.17
2018-04-18T07:42:41.449Z,16.30
2018-04-18T07:45:09.938Z,15.87
2018-04-18T07:47:38.620Z,16.43
2018-04-18T07:50:07.196Z,16.27
2018-04-18T07:52:35.746Z,14.97
2018-04-18T07:55:03.925Z,16.50
2018-04-18T07:57:32.172Z,14.70
2018-04-18T08:00:01.425Z,15.33
2018-04-18T08:02:29.931Z,14.77
2018-04-18T08:04:58.525Z,16.00
2018-04-18T08:07:27.810Z,15.73
2018-04-18T08:09:56.257Z,14.03
2018-04-18T08:12:24.759Z,13.40
2018-04-18T08:14:53.569Z,14.30
2018-04-18T08:17:22.065Z,12.50
2018-04-18T08:19:51.430Z,13.23
2018-04-18T08:22:19.692Z,14.37
2018-04-18T08:24:48.173Z,13.53
2018-04-18T08:27:16.653Z,12.10
2018-04-18T08:29:45.226Z,13.67
2018-04-18T08:32:13.914Z,13.30
2018-04-18T08:34:42.430Z,12.73
2018-04-18T08:37:10.897Z,13.40
2018-04-18T08:39:39.486Z,12.10
2018-04-18T08:42:07.973Z,11.33
2018-04-18T08:44:36.537Z,12.67
2018-04-18T08:47:05.033Z,11.73
2018-04-18T08:49:33.290Z,11.80
2018-04-18T08:52:01.781Z,11.13
2018-04-18T08:54:30.430Z,11.43
2018-04-18T08:56:59.549Z,9.80
2018-04-18T08:59:28.102Z,10.73
2018-04-18T09:01:57.366Z,11.10
2018-04-18T09:04:25.925Z,10.00
2018-04-18T09:06:54.583Z,9.83
2018-04-18T09:09:24.084Z,10.50
2018-04-18T09:11:53.564Z,9.93
2018-04-18T09:14:23.409Z,9.40
2018-04-18T09:16:52.883Z,9.70
2018-04-18T09:19:22.388Z,10.00
2018-04-18T09:21:52.062Z,9.43
2018-04-18T09:24:21.551Z,10.20
2018-04-18T09:26:51.045Z,9.60
2018-04-18T09:29:20.559Z,8.47
2018-04-18T09:31:50.292Z,9.87
2018-04-18T09:34:19.850Z,9.50
2018-04-18T09:36:49.356Z,9.70
2018-04-18T09:39:18.841Z,9.57
2018-04-18T09:41:48.541Z,8.40
2018-04-18T09:44:18.032Z,8.97
2018-04-18T09:46:47.524Z,10.17
2018-04-18T09:49:17.119Z,10.13
2018-04-18T09:51:46.604Z,10.63
2018-04-18T09:54:16.163Z,9.63
2018-04-18T09:56:45.704Z,9.43
2018-04-18T09:59:15.200Z,8.90
2018-04-18T10:01:44.445Z,9.60
2018-04-18T10:04:13.722Z,8.93
2018-04-18T10:06:43.196Z,8.70
2018-04-18T10:09:12.684Z,10.27
2018-04-18T10:11:42.161Z,8.70
2018-04-18T10:14:11.716Z,8.70
2018-04-18T10:16:41.337Z,9.90
2018-04-18T10:19:10.833Z,8.87
2018-04-18T10:21:40.424Z,6.80
2018-04-18T10:24:10.057Z,7.63
2018-04-18T10:26:39.685Z,8.60
2018-04-18T10:29:09.268Z,8.30
2018-04-18T10:31:38.863Z,8.57
2018-04-18T10:34:08.576Z,7.50
2018-04-18T10:36:37.881Z,7.77
2018-04-18T10:39:07.286Z,7.93
2018-04-18T10:41:36.784Z,7.60
2018-04-18T10:44:06.161Z,7.40
2018-04-18T10:46:35.661Z,7.17
2018-04-18T10:49:05.141Z,7.47
2018-04-18T10:51:34.624Z,7.63
2018-04-18T10:54:04.100Z,7.23
2018-04-18T10:56:33.616Z,6.60
2018-04-18T10:59:03.346Z,7.17
2018-04-18T11:01:33.143Z,7.40
2018-04-18T11:04:02.633Z,6.47
2018-04-18T11:06:33.039Z,5.37
2018-04-18T11:09:02.604Z,5.97
2018-04-18T11:11:32.196Z,6.13
2018-04-18T11:14:01.718Z,5.70
2018-04-18T11:16:31.268Z,5.27
2018-04-18T11:19:00.833Z,5.70
2018-04-18T11:21:30.392Z,4.83
2018-04-18T11:23:59.633Z,5.40
2018-04-18T11:26:29.232Z,5.27
2018-04-18T11:28:58.708Z,3.93
2018-04-18T11:31:28.317Z,5.00
2018-04-18T11:33:57.795Z,5.20
2018-04-18T11:36:27.434Z,5.57
2018-04-18T11:38:56.901Z,4.63
2018-04-18T11:41:26.416Z,5.13
2018-04-18T11:43:55.901Z,4.60
2018-04-18T11:46:25.408Z,4.70
2018-04-18T11:48:55.124Z,5.07
2018-04-18T11:51:24.656Z,5.43
2018-04-18T11:53:54.021Z,5.00
2018-04-18T11:56:23.736Z,6.40
2018-04-18T11:58:53.229Z,5.63
2018-04-18T12:01:22.810Z,5.27
2018-04-18T12:03:52.316Z,5.10
2018-04-18T12:06:21.947Z,5.10
2018-04-18T12:08:51.476Z,4.90
2018-04-18T12:11:20.987Z,6.33
2018-04-18T12:13:50.247Z,5.17
2018-04-18T12:16:19.742Z,5.30
2018-04-18T12:18:49.383Z,4.50
2018-04-18T12:21:18.643Z,5.40
2018-04-18T12:23:48.137Z,5.70
2018-04-18T12:26:17.641Z,5.10
2018-04-18T12:28:47.147Z,5.27
2018-04-18T12:31:16.658Z,6.20
2018-04-18T12:33:46.220Z,5.90
2018-04-18T12:36:16.126Z,5.70
2018-04-18T12:38:45.640Z,4.70
2018-04-18T12:41:15.120Z,5.30
2018-04-18T12:43:44.391Z,4.40
2018-04-18T12:46:13.883Z,5.57
2018-04-18T12:48:43.385Z,4.77
2018-04-18T12:51:12.888Z,4.30
2018-04-18T12:53:42.393Z,3.97
2018-04-18T12:56:11.892Z,4.87
2018-04-18T12:58:41.402Z,5.27
2018-04-18T13:01:10.889Z,5.30
2018-04-18T13:03:40.393Z,4.80
2018-04-18T13:06:09.904Z,5.10
2018-04-18T13:08:39.393Z,4.43
2018-04-18T13:11:08.889Z,4.67
2018-04-18T13:13:38.416Z,4.70
2018-04-18T13:16:07.985Z,4.90
2018-04-18T13:18:37.245Z,4.50
2018-04-18T13:21:06.770Z,4.60
2018-04-18T13:23:36.372Z,4.97
2018-04-18T13:26:05.905Z,4.70
2018-04-18T13:28:35.409Z,5.20
2018-04-18T13:31:04.881Z,4.90
2018-04-18T13:33:34.453Z,3.60
2018-04-18T13:36:04.007Z,5.07
2018-04-18T13:38:33.245Z,5.10
2018-04-18T13:41:02.752Z,4.97
2018-04-18T13:43:32.353Z,5.10
2018-04-18T13:46:01.978Z,4.03
2018-04-18T13:48:31.632Z,5.20
2018-04-18T13:51:00.911Z,4.90
2018-04-18T13:53:30.512Z,5.93
2018-04-18T13:56:00.017Z,5.40
2018-04-18T13:58:29.520Z,4.50
2018-04-18T14:00:59.013Z,3.93
2018-04-18T14:03:28.616Z,4.30
2018-04-18T14:05:58.116Z,4.77
2018-04-18T14:08:27.740Z,3.73
2018-04-18T14:10:57.252Z,5.30
2018-04-18T14:13:27.720Z,5.10
2018-04-18T14:15:57.235Z,5.27
2018-04-18T14:18:26.740Z,5.10
2018-04-18T14:20:56.316Z,5.30
2018-04-18T14:23:26.713Z,5.50
2018-04-18T14:25:56.287Z,5.67
2018-04-18T14:28:25.054Z,5.47
2018-04-18T14:30:53.541Z,5.33
2018-04-18T14:33:22.053Z,5.40
2018-04-18T14:35:50.807Z,4.20
2018-04-18T14:38:19.297Z,4.10
2018-04-18T14:40:47.770Z,4.50
2018-04-18T14:43:16.274Z,5.30
2018-04-18T14:45:44.830Z,5.47
2018-04-18T14:48:14.516Z,4.93
2018-04-18T14:50:43.774Z,5.40
2018-04-18T14:53:12.270Z,5.40
2018-04-18T14:55:40.848Z,4.93
2018-04-18T14:58:09.352Z,5.93
2018-04-18T15:00:38.668Z,5.30
2018-04-18T15:03:08.113Z,5.30
2018-04-18T15:05:36.778Z,4.60
2018-04-18T15:08:05.266Z,5.37
2018-04-18T15:10:33.964Z,5.07
2018-04-18T15:13:02.487Z,4.50
2018-04-18T15:15:31.089Z,4.63
2018-04-18T15:17:59.647Z,4.87
2018-04-18T15:20:28.148Z,4.60
2018-04-18T15:22:56.742Z,5.07
2018-04-18T15:25:25.381Z,4.93
2018-04-18T15:27:53.921Z,4.43
2018-04-18T15:30:23.177Z,5.17
2018-04-18T15:32:51.680Z,4.87
2018-04-18T15:35:19.925Z,4.53
2018-04-18T15:37:48.459Z,5.07
2018-04-18T15:40:16.947Z,4.27
2018-04-18T15:42:45.900Z,4.20
2018-04-18T15:45:14.465Z,4.27
2018-04-18T15:47:43.837Z,4.57
2018-04-18T15:50:13.190Z,4.60
2018-04-18T15:52:41.697Z,4.50
2018-04-18T15:55:10.188Z,4.50
2018-04-18T15:57:38.674Z,4.40
2018-04-18T16:00:07.177Z,4.40
2018-04-18T16:02:36.415Z,4.27
2018-04-18T16:05:05.025Z,4.93
2018-04-18T16:07:34.057Z,5.40
2018-04-18T16:10:03.414Z,4.23
2018-04-18T16:12:32.706Z,4.40
2018-04-18T16:15:01.018Z,4.60
2018-04-18T16:17:29.653Z,4.53
2018-04-18T16:19:58.172Z,5.30
2018-04-18T16:22:26.646Z,4.70
2018-04-18T16:24:55.160Z,5.17
2018-04-18T16:27:24.482Z,5.30
2018-04-18T16:29:52.989Z,5.70
2018-04-18T16:32:21.598Z,4.73
2018-04-18T16:34:49.921Z,4.93
2018-04-18T16:37:19.193Z,5.30
2018-04-18T16:39:47.789Z,5.13
2018-04-18T16:42:16.272Z,5.40
2018-04-18T16:44:44.790Z,5.30
2018-04-18T16:47:13.364Z,4.80
2018-04-18T16:49:42.621Z,5.17
2018-04-18T16:52:11.126Z,4.90
2018-04-18T16:54:39.605Z,5.13
2018-04-18T16:57:08.927Z,5.80
2018-04-18T16:59:37.626Z,5.00
2018-04-18T17:02:05.923Z,5.70
2018-04-18T17:04:34.447Z,5.03
2018-04-18T17:07:02.963Z,4.80
2018-04-18T17:09:31.481Z,4.90
2018-04-18T17:11:59.990Z,5.80
2018-04-18T17:14:28.242Z,5.90
2018-04-18T17:16:56.738Z,4.53
2018-04-18T17:19:25.223Z,5.17
2018-04-18T17:21:53.729Z,4.17
2018-04-18T17:24:22.276Z,4.70
2018-04-18T17:26:50.774Z,4.17
2018-04-18T17:29:19.262Z,4.30
2018-04-18T17:31:47.805Z,4.70
2018-04-18T17:34:16.061Z,4.60
2018-04-18T17:36:45.111Z,4.63
2018-04-18T17:39:13.596Z,4.70
2018-04-18T17:41:42.105Z,4.47
2018-04-18T17:44:10.595Z,4.87
2018-04-18T17:46:39.852Z,4.90
2018-04-18T17:49:08.437Z,5.40
2018-04-18T17:51:36.956Z,6.43
2018-04-18T17:54:05.444Z,5.93
2018-04-18T17:56:34.378Z,5.60
2018-04-18T17:59:03.093Z,5.30
2018-04-18T18:01:31.571Z,5.77
2018-04-18T18:04:00.065Z,4.83
2018-04-18T18:06:28.720Z,5.60
2018-04-18T18:08:57.223Z,5.90
2018-04-18T18:11:25.717Z,5.10
2018-04-18T18:13:54.215Z,5.20
2018-04-18T18:16:22.771Z,6.47
2018-04-18T18:18:51.309Z,6.00
2018-04-18T18:21:19.962Z,6.87
2018-04-18T18:23:48.455Z,7.57
2018-04-18T18:26:17.019Z,5.90
2018-04-18T18:28:45.524Z,6.33
2018-04-18T18:31:14.022Z,6.80
2018-04-18T18:33:43.401Z,5.67
2018-04-18T18:36:11.656Z,6.67
2018-04-18T18:38:40.063Z,6.33
2018-04-18T18:41:08.602Z,7.90
2018-04-18T18:43:37.093Z,6.60
2018-04-18T18:46:05.643Z,8.33
2018-04-18T18:48:34.981Z,7.47
2018-04-18T18:51:03.513Z,7.40
2018-04-18T18:53:31.989Z,6.30
2018-04-18T18:56:00.500Z,6.67
2018-04-18T18:58:30.097Z,6.80
2018-04-18T19:00:59.389Z,6.37
2018-04-18T19:03:27.955Z,6.43
2018-04-18T19:05:56.490Z,6.13
2018-04-18T19:08:25.008Z,6.33
2018-04-18T19:10:53.907Z,6.33
2018-04-18T19:13:23.224Z,6.10
2018-04-18T19:15:52.784Z,7.47
2018-04-18T19:18:21.290Z,8.27
2018-04-18T19:20:49.913Z,9.60
2018-04-18T19:23:18.430Z,7.30
2018-04-18T19:25:46.925Z,7.30
2018-04-18T19:28:15.606Z,7.60
2018-04-18T19:30:44.310Z,7.17
2018-04-18T19:33:12.902Z,6.53
2018-04-18T19:35:41.478Z,5.87
2018-04-18T19:38:10.012Z,6.40
2018-04-18T19:40:39.317Z,6.80
2018-04-18T19:43:07.639Z,7.00
2018-04-18T19:45:36.133Z,8.30
2018-04-18T19:48:04.662Z,7.93
2018-04-18T19:50:33.928Z,7.50
2018-04-18T19:53:02.454Z,7.30
2018-04-18T19:55:31.463Z,6.97
2018-04-18T19:57:59.973Z,6.23
2018-04-18T20:00:28.483Z,6.80
2018-04-18T20:02:57.020Z,6.77
2018-04-18T20:05:26.237Z,7.10
2018-04-18T20:07:54.773Z,6.60
2018-04-18T20:10:24.024Z,7.00
2018-04-18T20:12:52.668Z,6.63
2018-04-18T20:15:21.946Z,5.97
2018-04-18T20:17:50.503Z,6.50
2018-04-18T20:20:18.989Z,7.20
2018-04-18T20:22:47.474Z,6.93
2018-04-18T20:25:15.999Z,6.70
2018-04-18T20:27:45.249Z,7.43
2018-04-18T20:30:14.624Z,7.80
2018-04-18T20:32:43.276Z,7.43
2018-04-18T20:35:11.886Z,7.70
2018-04-18T20:37:40.465Z,8.50
2018-04-18T20:40:09.762Z,7.63
2018-04-18T20:42:39.102Z,7.10
2018-04-18T20:45:07.649Z,8.07
2018-04-18T20:47:37.007Z,7.83
2018-04-18T20:50:05.498Z,8.60
2018-04-18T20:52:33.977Z,8.73
2018-04-18T20:55:02.147Z,8.60
2018-04-18T20:57:30.730Z,8.67
2018-04-18T20:59:59.298Z,7.80
2018-04-18T21:02:27.763Z,8.03
2018-04-18T21:04:56.287Z,7.30
2018-04-18T21:07:24.846Z,8.20
2018-04-18T21:09:53.401Z,7.40
2018-04-18T21:12:22.682Z,9.17
2018-04-18T21:14:51.170Z,8.50
2018-04-18T21:17:20.441Z,8.93
2018-04-18T21:19:48.973Z,8.50
2018-04-18T21:22:17.437Z,8.53
2018-04-18T21:24:46.795Z,8.47
2018-04-18T21:27:15.257Z,9.23
2018-04-18T21:29:43.746Z,8.27
2018-04-18T21:32:12.295Z,9.30
2018-04-18T21:34:41.562Z,9.60
2018-04-18T21:37:10.038Z,9.83
2018-04-18T21:39:38.661Z,8.97
2018-04-18T21:42:08.017Z,9.87
2018-04-18T21:44:36.521Z,9.80
2018-04-18T21:47:04.992Z,10.90
2018-04-18T21:49:33.554Z,11.50
2018-04-18T21:52:02.041Z,10.60
2018-04-18T21:54:30.537Z,9.67
2018-04-18T21:56:59.037Z,8.90
2018-04-18T21:59:27.542Z,10.90
2018-04-18T22:01:56.793Z,9.40
2018-04-18T22:04:25.321Z,10.50
2018-04-18T22:06:54.569Z,9.77
2018-04-18T22:09:22.833Z,9.93
2018-04-18T22:11:51.433Z,10.67
2018-04-18T22:14:19.917Z,10.10
2018-04-18T22:16:48.508Z,10.47
2018-04-18T22:19:17.170Z,10.23
2018-04-18T22:21:45.409Z,11.20
2018-04-18T22:24:13.952Z,12.10
2018-04-18T22:26:42.568Z,10.80
2018-04-18T22:29:12.747Z,13.67
2018-04-18T22:31:41.244Z,12.13
2018-04-18T22:34:09.730Z,10.63
2018-04-18T22:36:38.200Z,11.27
2018-04-18T22:39:06.354Z,12.40
2018-04-18T22:41:34.973Z,11.63
2018-04-18T22:44:03.590Z,12.90
2018-04-18T22:46:32.097Z,10.90
2018-04-18T22:49:01.345Z,12.40
2018-04-18T22:51:29.926Z,12.77
2018-04-18T22:53:58.544Z,12.07
2018-04-18T22:56:28.569Z,12.53
2018-04-18T22:58:57.160Z,13.27
2018-04-18T23:01:26.433Z,12.93
2018-04-18T23:03:54.957Z,12.50
2018-04-18T23:06:24.217Z,14.03
2018-04-18T23:08:53.469Z,13.03
2018-04-18T23:11:21.949Z,14.10
2018-04-18T23:13:50.458Z,13.63
2018-04-18T23:16:18.946Z,14.30
2018-04-18T23:18:47.414Z,15.50
2018-04-18T23:21:15.681Z,14.77
2018-04-18T23:23:44.178Z,15.87
2018-04-18T23:26:12.677Z,15.17
2018-04-18T23:28:41.188Z,14.23
2018-04-18T23:31:10.421Z,14.73
2018-04-18T23:33:39.829Z,15.10
2018-04-18T23:36:08.329Z,15.20
2018-04-18T23:38:36.829Z,15.23
2018-04-18T23:41:05.326Z,13.83
2018-04-18T23:43:33.894Z,14.57
2018-04-18T23:46:02.398Z,13.87
2018-04-18T23:48:31.009Z,15.73
2018-04-18T23:51:00.308Z,15.80
2018-04-18T23:53:28.840Z,15.30
2018-04-18T23:55:57.380Z,15.30
2018-04-18T23:58:26.743Z,15.93
